Time;durP1;ratioP1;P1;durP2;ratioP2;P2;SDS_P1;SDS_P2;PMS_P1;PMS_P2;Temp;Humidity;BMP_temperature;BMP_pressure;BME280_temperature;BME280_humidity;BME280_pressure;Samples;Min_cycle;Max_cycle;Signal;HPM_P1;HPM_P2
2023/01/18 00:01:49;;;;;;;3.97;2.65;;;21.90;99.90;;;;;;5052400;28;20379;-60
2023/01/18 00:04:14;;;;;;;4.65;2.95;;;22.00;99.90;;;;;;5050823;28;20462;-59
2023/01/18 00:06:40;;;;;;;4.93;2.90;;;22.00;99.90;;;;;;5051878;28;20442;-60
2023/01/18 00:09:06;;;;;;;5.25;2.70;;;22.00;99.90;;;;;;5051622;28;20783;-59
2023/01/18 00:11:31;;;;;;;3.33;2.60;;;22.00;99.90;;;;;;5052139;28;20410;-60
2023/01/18 00:13:57;;;;;;;3.97;2.90;;;22.00;99.90;;;;;;5051907;28;20967;-59
2023/01/18 00:16:24;;;;;;;4.05;2.90;;;22.00;99.90;;;;;;5050457;28;20396;-59
2023/01/18 00:18:51;;;;;;;3.78;2.60;;;21.90;99.90;;;;;;5051013;28;20384;-59
2023/01/18 00:21:17;;;;;;;3.58;2.53;;;22.00;99.90;;;;;;5052108;28;20904;-59
2023/01/18 00:23:42;;;;;;;3.28;2.53;;;22.00;99.90;;;;;;5051967;28;20408;-60
2023/01/18 00:26:10;;;;;;;3.23;2.70;;;22.00;99.90;;;;;;5051662;28;20842;-59
2023/01/18 00:28:37;;;;;;;3.00;2.40;;;22.00;99.90;;;;;;5051082;28;20383;-60
2023/01/18 00:31:10;;;;;;;4.13;3.08;;;22.00;99.90;;;;;;5051340;28;20403;-59
2023/01/18 00:33:36;;;;;;;3.83;3.00;;;22.00;99.90;;;;;;5051581;28;20427;-59
2023/01/18 00:36:03;;;;;;;3.80;2.50;;;22.00;99.90;;;;;;5048822;28;20446;-59
2023/01/18 00:38:29;;;;;;;3.53;2.47;;;22.00;99.90;;;;;;5050306;28;20777;-59
2023/01/18 00:40:55;;;;;;;4.00;2.60;;;22.00;99.90;;;;;;5052009;28;20399;-59
2023/01/18 00:43:40;;;;;;;3.05;2.30;;;22.10;99.90;;;;;;5051757;28;20387;-59
2023/01/18 00:46:16;;;;;;;3.50;2.53;;;22.10;99.90;;;;;;5051621;28;20377;-60
2023/01/18 00:48:43;;;;;;;2.55;2.30;;;22.10;99.90;;;;;;5050813;28;20364;-59
2023/01/18 00:51:12;;;;;;;2.87;2.37;;;22.10;99.90;;;;;;5051389;28;20399;-59
2023/01/18 00:53:38;;;;;;;3.75;2.72;;;22.10;99.90;;;;;;5051667;28;20889;-60
2023/01/18 00:56:06;;;;;;;5.38;3.00;;;22.10;99.90;;;;;;5051357;28;20843;-60
2023/01/18 00:58:32;;;;;;;4.30;3.03;;;22.10;99.90;;;;;;5050944;28;20407;-60
2023/01/18 01:00:57;;;;;;;3.17;2.57;;;22.10;99.90;;;;;;5051772;28;20405;-59
2023/01/18 01:03:23;;;;;;;4.95;2.70;;;22.00;99.90;;;;;;5051451;28;20380;-60
2023/01/18 01:08:33;;;;;;;3.38;2.90;;;22.10;99.90;;;;;;5037183;28;21078;-61
2023/01/18 01:11:10;;;;;;;3.63;2.67;;;22.10;99.90;;;;;;5066497;28;20444;-59
2023/01/18 01:27:19;;;;;;;3.00;2.47;;;22.10;99.90;;;;;;5056853;28;20445;-60
2023/01/18 01:29:45;;;;;;;2.90;2.40;;;22.10;99.90;;;;;;5054543;28;20944;-60
2023/01/18 01:32:11;;;;;;;2.90;2.40;;;22.10;99.90;;;;;;5065610;28;20455;-59
2023/01/18 01:34:37;;;;;;;3.40;2.55;;;22.00;99.90;;;;;;5070748;28;20429;-62
2023/01/18 01:37:03;;;;;;;3.20;2.40;;;22.00;99.90;;;;;;5057791;28;20414;-59
2023/01/18 01:39:29;;;;;;;3.35;2.40;;;22.10;99.90;;;;;;5050646;28;20735;-59
2023/01/18 01:41:55;;;;;;;3.35;2.65;;;22.00;99.90;;;;;;5050562;28;20823;-60
2023/01/18 01:44:22;;;;;;;4.07;2.90;;;22.10;99.90;;;;;;5050990;28;20866;-59
2023/01/18 01:47:10;;;;;;;3.22;2.60;;;22.10;99.90;;;;;;5050282;28;20830;-59
2023/01/18 01:49:41;;;;;;;3.85;2.53;;;22.10;99.90;;;;;;5050883;28;20408;-59
2023/01/18 01:52:10;;;;;;;3.35;2.97;;;22.00;99.90;;;;;;5050699;28;20915;-60
2023/01/18 01:54:46;;;;;;;3.10;2.55;;;22.00;99.90;;;;;;5050077;28;20411;-59
2023/01/18 01:57:21;;;;;;;3.33;2.42;;;22.10;99.90;;;;;;5049349;28;20437;-60
2023/01/18 02:00:01;;;;;;;2.47;2.28;;;22.10;99.90;;;;;;5050256;28;20859;-60
2023/01/18 02:02:29;;;;;;;2.92;2.20;;;22.10;99.90;;;;;;5050526;28;20368;-60
2023/01/18 02:04:56;;;;;;;2.63;2.40;;;22.10;99.90;;;;;;5050166;28;20467;-59
2023/01/18 02:07:25;;;;;;;3.03;2.08;;;22.10;99.90;;;;;;5049638;28;20466;-59
2023/01/18 02:09:51;;;;;;;2.75;2.13;;;22.10;99.90;;;;;;5050077;28;20388;-60
2023/01/18 02:12:17;;;;;;;3.13;2.50;;;22.10;99.90;;;;;;5049983;28;20379;-60
2023/01/18 02:14:43;;;;;;;2.67;2.15;;;22.10;99.90;;;;;;5048457;28;20415;-60
2023/01/18 02:17:17;;;;;;;2.90;2.47;;;22.10;99.90;;;;;;5048831;28;20379;-61
2023/01/18 02:20:18;;;;;;;3.60;2.60;;;22.10;99.90;;;;;;5050009;28;20371;-59
2023/01/18 02:22:46;;;;;;;3.92;2.20;;;22.10;99.90;;;;;;5049742;28;20444;-60
2023/01/18 02:25:33;;;;;;;2.80;2.50;;;22.10;99.90;;;;;;5048555;28;20447;-60
2023/01/18 02:28:35;;;;;;;3.05;2.47;;;22.10;99.90;;;;;;5049129;28;20935;-60
2023/01/18 02:31:19;;;;;;;3.40;2.47;;;22.10;99.90;;;;;;5048936;28;20434;-61
2023/01/18 02:33:49;;;;;;;2.80;2.50;;;22.10;99.90;;;;;;5046535;28;20863;-60
2023/01/18 02:36:35;;;;;;;3.40;2.40;;;22.20;99.90;;;;;;5049708;28;20425;-60
2023/01/18 02:39:09;;;;;;;2.50;2.30;;;22.20;99.90;;;;;;5048680;28;20411;-59
2023/01/18 02:47:20;;;;;;;2.65;2.45;;;22.20;99.90;;;;;;5048935;28;20442;-60
2023/01/18 02:49:46;;;;;;;3.08;2.15;;;22.10;99.90;;;;;;5049238;28;20402;-60
2023/01/18 02:52:41;;;;;;;3.58;2.42;;;22.10;99.90;;;;;;5049400;28;20896;-59
2023/01/18 02:55:29;;;;;;;2.47;2.03;;;22.10;99.90;;;;;;5049012;28;20400;-60
2023/01/18 02:58:04;;;;;;;3.30;2.53;;;22.20;99.90;;;;;;5048099;28;20376;-60
2023/01/18 03:00:36;;;;;;;2.90;2.58;;;22.10;99.90;;;;;;5049196;28;20710;-60
2023/01/18 03:03:05;;;;;;;3.00;2.70;;;22.10;99.90;;;;;;5049232;28;20433;-59
2023/01/18 03:05:32;;;;;;;2.97;2.20;;;22.00;99.90;;;;;;5048667;28;20380;-60
2023/01/18 03:10:38;;;;;;;2.78;2.17;;;22.10;99.90;;;;;;5211912;22;20482;-60
2023/01/18 03:13:23;;;;;;;2.60;2.20;;;22.10;99.90;;;;;;5051529;28;20789;-59
2023/01/18 03:16:03;;;;;;;2.97;2.40;;;22.10;99.90;;;;;;5048748;28;20565;-60
2023/01/18 03:18:33;;;;;;;2.97;2.27;;;22.20;99.90;;;;;;5049154;28;20374;-59
2023/01/18 03:21:04;;;;;;;2.40;2.17;;;22.20;99.90;;;;;;5049183;28;20409;-60
2023/01/18 03:23:39;;;;;;;2.30;2.10;;;22.10;99.90;;;;;;5046103;28;20384;-61
2023/01/18 03:26:13;;;;;;;2.78;2.22;;;22.10;99.90;;;;;;5038418;28;20490;-59
2023/01/18 03:34:43;;;;;;;3.63;2.28;;;22.20;99.90;;;;;;5049178;28;20911;-59
2023/01/18 03:37:16;;;;;;;2.90;2.47;;;22.10;99.90;;;;;;5048088;28;20441;-59
2023/01/18 03:39:47;;;;;;;3.33;2.20;;;22.20;99.90;;;;;;5048377;28;20372;-60
2023/01/18 03:42:38;;;;;;;3.22;2.40;;;22.20;99.90;;;;;;5048579;28;20438;-60
2023/01/18 03:45:12;;;;;;;2.65;2.30;;;22.20;99.90;;;;;;5045813;28;20986;-60
2023/01/18 03:47:38;;;;;;;2.53;2.33;;;22.20;99.90;;;;;;5046415;28;20396;-60
2023/01/18 03:50:04;;;;;;;2.67;2.40;;;22.20;99.90;;;;;;5045765;28;20598;-59
2023/01/18 03:52:41;;;;;;;2.88;2.45;;;22.20;99.90;;;;;;5047262;28;20396;-60
2023/01/18 03:55:19;;;;;;;2.90;2.37;;;22.20;99.90;;;;;;5047136;28;20399;-59
2023/01/18 03:57:48;;;;;;;2.80;2.50;;;22.20;99.90;;;;;;5046398;28;20404;-59
2023/01/18 04:00:15;;;;;;;2.73;2.30;;;22.20;99.90;;;;;;5048136;28;20398;-60
2023/01/18 04:02:45;;;;;;;2.67;2.40;;;22.20;99.90;;;;;;5048119;28;20379;-60
2023/01/18 04:05:11;;;;;;;3.40;2.28;;;22.20;99.90;;;;;;5048427;28;20534;-60
2023/01/18 04:07:37;;;;;;;2.63;2.30;;;22.20;99.90;;;;;;5048163;28;20929;-59
2023/01/18 04:10:03;;;;;;;2.80;2.33;;;22.20;99.90;;;;;;5055997;28;20421;-60
2023/01/18 04:12:30;;;;;;;2.75;2.30;;;22.10;99.90;;;;;;5068305;28;20374;-60
2023/01/18 04:14:56;;;;;;;2.60;2.20;;;22.20;99.90;;;;;;5051026;28;20396;-60
2023/01/18 04:17:21;;;;;;;3.10;2.20;;;22.20;99.90;;;;;;5048321;28;20395;-60
2023/01/18 04:19:47;;;;;;;2.60;2.08;;;22.20;99.90;;;;;;5048255;28;20459;-60
2023/01/18 04:22:13;;;;;;;2.20;2.00;;;22.20;99.90;;;;;;5048280;28;20433;-60
2023/01/18 04:24:39;;;;;;;2.75;2.15;;;22.20;99.90;;;;;;5047109;28;20386;-59
2023/01/18 04:27:04;;;;;;;2.53;1.93;;;22.10;99.90;;;;;;5048195;28;20376;-59
2023/01/18 04:29:30;;;;;;;3.10;2.30;;;22.20;99.90;;;;;;5047850;28;20407;-60
2023/01/18 04:31:56;;;;;;;2.45;2.25;;;22.20;99.90;;;;;;5047359;28;20759;-60
2023/01/18 04:34:21;;;;;;;2.40;2.00;;;22.20;99.90;;;;;;5048003;28;20399;-60
2023/01/18 04:36:48;;;;;;;2.85;2.08;;;22.20;99.90;;;;;;5047926;28;20482;-60
2023/01/18 04:39:13;;;;;;;2.20;2.00;;;22.10;99.90;;;;;;5048093;28;20403;-60
2023/01/18 04:41:39;;;;;;;2.67;2.20;;;22.20;99.90;;;;;;5051581;28;20858;-59
2023/01/18 04:44:05;;;;;;;2.80;2.10;;;22.20;99.90;;;;;;5051508;28;20445;-60
2023/01/18 04:46:31;;;;;;;2.27;2.00;;;22.20;99.90;;;;;;5051716;28;20376;-59
2023/01/18 04:48:56;;;;;;;2.50;2.25;;;22.20;99.90;;;;;;5050968;28;20382;-60
2023/01/18 04:51:26;;;;;;;2.23;2.03;;;22.20;99.90;;;;;;5051506;28;20837;-59
2023/01/18 04:53:52;;;;;;;2.20;2.00;;;22.20;99.90;;;;;;5050595;28;20404;-60
2023/01/18 04:56:18;;;;;;;2.10;1.90;;;22.20;99.90;;;;;;5051584;28;20390;-60
2023/01/18 04:58:44;;;;;;;2.40;1.90;;;22.20;99.90;;;;;;5049800;28;20396;-59
2023/01/18 05:01:13;;;;;;;2.67;2.00;;;22.20;99.90;;;;;;5051246;28;20372;-59
2023/01/18 05:03:40;;;;;;;2.88;2.30;;;22.20;99.90;;;;;;5051002;28;20734;-59
2023/01/18 05:06:10;;;;;;;2.28;2.05;;;22.20;99.90;;;;;;5051229;28;20415;-60
2023/01/18 05:08:39;;;;;;;2.28;2.00;;;22.30;99.90;;;;;;5050477;28;20407;-60
2023/01/18 05:11:08;;;;;;;2.20;2.00;;;22.30;99.90;;;;;;5051135;28;20430;-60
2023/01/18 05:13:34;;;;;;;2.90;1.98;;;22.30;99.90;;;;;;5050823;28;20382;-60
2023/01/18 05:16:00;;;;;;;2.60;2.20;;;22.30;99.90;;;;;;5051033;28;20399;-60
2023/01/18 05:18:26;;;;;;;2.05;1.85;;;22.30;99.90;;;;;;5050463;28;20471;-59
2023/01/18 05:20:52;;;;;;;2.35;2.08;;;22.30;99.90;;;;;;5050949;28;20897;-60
2023/01/18 05:23:18;;;;;;;2.70;1.77;;;22.30;99.90;;;;;;5050831;28;20476;-59
2023/01/18 05:25:43;;;;;;;2.27;2.07;;;22.30;99.90;;;;;;5049725;28;20420;-60
2023/01/18 05:28:09;;;;;;;2.17;1.85;;;22.30;99.90;;;;;;5050357;28;20858;-59
2023/01/18 05:30:40;;;;;;;2.07;1.83;;;22.20;99.90;;;;;;5050668;28;20390;-59
2023/01/18 05:33:08;;;;;;;2.10;1.90;;;22.30;99.90;;;;;;5050503;28;20470;-60
2023/01/18 05:35:34;;;;;;;2.58;2.00;;;22.30;99.90;;;;;;5050444;28;20426;-61
2023/01/18 05:37:59;;;;;;;2.30;1.90;;;22.30;99.90;;;;;;5049782;28;20713;-60
2023/01/18 05:40:25;;;;;;;2.10;1.83;;;22.30;99.90;;;;;;5050085;28;20455;-60
2023/01/18 05:42:51;;;;;;;2.10;1.90;;;22.30;99.90;;;;;;5050771;28;20444;-59
2023/01/18 05:45:16;;;;;;;2.27;2.07;;;22.30;99.90;;;;;;5050979;28;20379;-60
2023/01/18 05:47:42;;;;;;;2.47;2.17;;;22.30;99.90;;;;;;5049803;28;20920;-59
2023/01/18 05:50:09;;;;;;;2.28;2.00;;;22.30;99.90;;;;;;5050211;28;20376;-59
2023/01/18 05:52:34;;;;;;;2.20;1.90;;;22.30;99.90;;;;;;5049510;28;20404;-59
2023/01/18 05:55:00;;;;;;;2.13;1.80;;;22.30;99.90;;;;;;5049863;28;20410;-60
2023/01/18 05:57:25;;;;;;;2.22;2.03;;;22.30;99.90;;;;;;5047458;28;20877;-60
2023/01/18 05:59:51;;;;;;;2.00;1.80;;;22.30;99.90;;;;;;5030323;28;20394;-59
2023/01/18 06:02:19;;;;;;;2.40;1.97;;;22.30;99.90;;;;;;5040980;28;20830;-60
2023/01/18 06:04:46;;;;;;;2.17;1.80;;;22.20;99.90;;;;;;5047948;28;20407;-61
2023/01/18 06:07:13;;;;;;;2.67;1.83;;;22.30;99.90;;;;;;5049121;28;20387;-60
2023/01/18 06:09:39;;;;;;;1.85;1.67;;;22.30;99.90;;;;;;5053144;28;20464;-61
2023/01/18 06:12:05;;;;;;;2.00;1.70;;;22.20;99.90;;;;;;5066742;28;20378;-60
2023/01/18 06:14:31;;;;;;;2.30;1.92;;;22.20;99.90;;;;;;5048756;28;20792;-60
2023/01/18 06:16:56;;;;;;;2.27;1.97;;;22.20;99.90;;;;;;5059007;28;20378;-59
2023/01/18 06:19:22;;;;;;;2.10;1.63;;;22.30;99.90;;;;;;5050598;28;20886;-60
2023/01/18 06:21:47;;;;;;;2.07;1.80;;;22.30;99.90;;;;;;5065302;28;20448;-60
2023/01/18 06:24:13;;;;;;;2.30;1.90;;;22.30;99.90;;;;;;5053217;28;20383;-59
2023/01/18 06:26:39;;;;;;;2.45;2.05;;;22.30;99.90;;;;;;5057096;28;20898;-61
2023/01/18 06:29:04;;;;;;;2.10;1.77;;;22.30;99.90;;;;;;5040125;28;20447;-59
2023/01/18 06:31:30;;;;;;;2.40;1.93;;;22.20;99.90;;;;;;5054922;28;20462;-59
2023/01/18 06:33:56;;;;;;;2.25;1.95;;;22.20;99.90;;;;;;5053577;28;20384;-59
2023/01/18 06:36:22;;;;;;;2.27;1.90;;;22.10;99.90;;;;;;5061473;28;21093;-59
2023/01/18 06:38:48;;;;;;;2.20;1.90;;;22.10;99.90;;;;;;5046731;28;20461;-59
2023/01/18 06:41:14;;;;;;;2.10;1.90;;;22.10;99.90;;;;;;5049132;28;20384;-59
2023/01/18 06:43:41;;;;;;;2.20;2.00;;;22.10;99.90;;;;;;5048186;28;20375;-60
2023/01/18 06:46:08;;;;;;;2.90;1.90;;;22.20;99.90;;;;;;5047900;28;20380;-59
2023/01/18 06:48:34;;;;;;;2.63;1.90;;;22.20;99.90;;;;;;5048231;28;20384;-59
2023/01/18 06:51:00;;;;;;;2.03;1.73;;;22.20;99.90;;;;;;5048344;28;20364;-59
2023/01/18 06:53:25;;;;;;;3.33;1.77;;;22.20;99.90;;;;;;5049100;28;20384;-60
2023/01/18 06:55:53;;;;;;;2.85;2.10;;;22.20;99.90;;;;;;5047865;28;20408;-59
2023/01/18 06:58:19;;;;;;;3.25;1.98;;;22.20;99.90;;;;;;5048385;28;20376;-59
2023/01/18 07:00:44;;;;;;;2.10;1.90;;;22.30;99.90;;;;;;5048909;28;20368;-59
2023/01/18 07:03:10;;;;;;;2.20;1.85;;;22.30;99.90;;;;;;5048309;28;20376;-59
2023/01/18 07:05:35;;;;;;;2.40;1.70;;;22.30;99.90;;;;;;5048849;28;20372;-59
2023/01/18 07:08:02;;;;;;;2.03;1.80;;;22.30;99.90;;;;;;5048430;28;21047;-59
2023/01/18 07:10:27;;;;;;;1.80;1.70;;;22.30;99.90;;;;;;5048519;28;20770;-58
2023/01/18 07:12:53;;;;;;;2.30;1.92;;;22.30;99.90;;;;;;5049884;28;20386;-58
2023/01/18 07:15:18;;;;;;;2.10;1.90;;;22.30;99.90;;;;;;5049845;28;20399;-59
2023/01/18 07:17:44;;;;;;;2.50;1.67;;;22.30;99.90;;;;;;5049943;28;20379;-59
2023/01/18 07:20:12;;;;;;;3.80;2.08;;;22.30;99.90;;;;;;5048031;28;21127;-60
2023/01/18 07:22:38;;;;;;;13.03;3.80;;;22.20;99.90;;;;;;5048550;28;20459;-59
2023/01/18 07:25:04;;;;;;;5.25;2.83;;;21.90;99.90;;;;;;5048311;28;20808;-58
2023/01/18 07:27:30;;;;;;;3.47;2.65;;;21.70;99.90;;;;;;5043688;28;20465;-59
2023/01/18 07:29:55;;;;;;;2.83;2.38;;;21.80;99.90;;;;;;5047660;28;21024;-59
2023/01/18 07:32:21;;;;;;;5.00;2.40;;;21.80;99.90;;;;;;5048903;28;20418;-59
2023/01/18 07:34:46;;;;;;;4.40;2.67;;;21.90;99.90;;;;;;5048264;28;20422;-59
2023/01/18 07:37:12;;;;;;;3.40;2.30;;;21.90;99.90;;;;;;5047593;28;20387;-59
2023/01/18 07:39:38;;;;;;;5.70;2.90;;;22.00;99.90;;;;;;5048715;28;20391;-59
2023/01/18 07:42:03;;;;;;;2.75;2.05;;;22.00;99.90;;;;;;5048622;28;20387;-59
2023/01/18 07:44:29;;;;;;;3.53;2.47;;;22.00;99.90;;;;;;5048915;28;20862;-59
2023/01/18 07:46:55;;;;;;;3.50;2.50;;;22.00;99.90;;;;;;5048033;28;20394;-59
2023/01/18 07:49:21;;;;;;;3.25;2.10;;;22.10;99.90;;;;;;5048568;28;20388;-58
2023/01/18 07:51:46;;;;;;;4.18;2.47;;;22.10;99.90;;;;;;5049351;28;20760;-59
2023/01/18 07:54:12;;;;;;;3.60;2.60;;;22.10;99.90;;;;;;5048639;28;20463;-59
2023/01/18 07:56:39;;;;;;;5.38;2.90;;;22.10;99.90;;;;;;5042600;28;20978;-59
2023/01/18 07:59:04;;;;;;;7.68;3.65;;;22.10;99.90;;;;;;5047180;28;20449;-59
2023/01/18 08:01:30;;;;;;;4.97;3.37;;;21.80;99.90;;;;;;5045392;28;20777;-59
2023/01/18 08:03:56;;;;;;;5.35;3.30;;;21.60;99.90;;;;;;5046053;28;20364;-59
2023/01/18 08:06:27;;;;;;;6.53;3.20;;;21.50;99.90;;;;;;5048305;28;20455;-59
2023/01/18 08:08:56;;;;;;;5.05;3.45;;;21.60;99.90;;;;;;5045397;28;20407;-59
2023/01/18 08:11:22;;;;;;;4.33;2.93;;;21.60;99.90;;;;;;5046658;28;20456;-60
2023/01/18 08:13:49;;;;;;;3.83;2.80;;;21.60;99.90;;;;;;5056583;28;20374;-59
2023/01/18 08:16:15;;;;;;;4.10;3.00;;;21.60;99.90;;;;;;5065880;28;20403;-59
2023/01/18 08:18:41;;;;;;;4.50;2.70;;;21.70;99.90;;;;;;5051054;28;20437;-59
2023/01/18 08:21:11;;;;;;;4.05;2.45;;;21.80;99.90;;;;;;5052334;28;20375;-59
2023/01/18 08:23:37;;;;;;;3.67;2.72;;;21.80;99.90;;;;;;5051735;28;20383;-60
2023/01/18 08:26:04;;;;;;;2.75;2.40;;;21.80;99.90;;;;;;5050749;28;20963;-59
2023/01/18 08:28:30;;;;;;;4.03;2.53;;;21.80;99.90;;;;;;5050230;28;20892;-59
2023/01/18 08:31:09;;;;;;;6.28;2.53;;;21.80;99.90;;;;;;5051052;28;20459;-59
2023/01/18 08:33:41;;;;;;;5.18;2.97;;;21.80;99.90;;;;;;5051865;28;20383;-60
2023/01/18 08:36:15;;;;;;;3.05;2.58;;;21.80;99.90;;;;;;5056125;28;20408;-59
2023/01/18 08:38:41;;;;;;;4.07;2.78;;;21.90;99.90;;;;;;5059292;28;20836;-60
2023/01/18 08:41:07;;;;;;;4.63;2.63;;;21.90;99.90;;;;;;5034960;28;20471;-59
2023/01/18 08:43:33;;;;;;;3.72;2.67;;;21.90;99.90;;;;;;5048043;28;20472;-59
2023/01/18 08:45:59;;;;;;;4.75;2.72;;;21.90;99.90;;;;;;5046967;28;20399;-59
2023/01/18 08:48:25;;;;;;;4.25;2.85;;;22.00;99.90;;;;;;5048624;28;20453;-59
2023/01/18 08:50:50;;;;;;;3.30;2.43;;;22.00;99.90;;;;;;5051475;28;20383;-59
2023/01/18 08:53:16;;;;;;;3.92;2.33;;;22.00;99.90;;;;;;5051321;28;20376;-59
2023/01/18 08:55:42;;;;;;;3.77;2.50;;;22.00;99.90;;;;;;5051041;28;20399;-59
2023/01/18 08:58:07;;;;;;;3.90;2.60;;;22.00;99.90;;;;;;5046907;28;20407;-59
2023/01/18 09:00:33;;;;;;;3.78;2.40;;;22.00;99.90;;;;;;5050877;28;20927;-59
2023/01/18 09:03:01;;;;;;;2.95;2.50;;;22.10;99.90;;;;;;5050637;28;20416;-59
2023/01/18 09:05:27;;;;;;;3.00;2.47;;;22.10;99.90;;;;;;5051322;28;20380;-59
2023/01/18 09:07:54;;;;;;;4.18;2.50;;;22.10;99.90;;;;;;5048486;28;20457;-59
2023/01/18 09:10:21;;;;;;;3.60;2.75;;;22.10;99.90;;;;;;5049772;28;20980;-59
2023/01/18 09:12:46;;;;;;;3.25;2.33;;;22.10;99.90;;;;;;5051276;28;20391;-59
2023/01/18 09:15:12;;;;;;;2.53;2.30;;;22.10;99.90;;;;;;5050138;28;20407;-59
2023/01/18 09:17:38;;;;;;;3.63;2.65;;;22.10;99.90;;;;;;5049312;28;20526;-59
2023/01/18 09:20:08;;;;;;;3.60;2.40;;;22.10;99.90;;;;;;5049655;28;20391;-60
2023/01/18 09:22:35;;;;;;;3.53;2.25;;;22.10;99.90;;;;;;5051006;28;20700;-59
2023/01/18 09:25:00;;;;;;;3.05;2.50;;;22.10;99.90;;;;;;5049357;28;20391;-59
2023/01/18 09:27:26;;;;;;;2.35;2.10;;;22.10;99.90;;;;;;5048895;28;20427;-59
2023/01/18 09:29:52;;;;;;;3.50;2.30;;;22.10;99.90;;;;;;5050383;28;20712;-59
2023/01/18 09:32:18;;;;;;;2.92;2.42;;;22.10;99.90;;;;;;5050648;28;20430;-60
2023/01/18 09:34:48;;;;;;;3.13;2.35;;;22.20;99.90;;;;;;5049138;28;20894;-59
2023/01/18 09:37:13;;;;;;;2.40;2.20;;;22.20;99.90;;;;;;5049318;28;20844;-59
2023/01/18 09:39:39;;;;;;;2.50;2.30;;;22.10;99.90;;;;;;5049350;28;20459;-59
2023/01/18 09:42:22;;;;;;;5.18;2.28;;;22.10;99.90;;;;;;5049194;28;21124;-59
2023/01/18 09:44:52;;;;;;;3.10;2.00;;;22.10;99.90;;;;;;5048955;28;20511;-59
2023/01/18 09:47:24;;;;;;;3.45;2.20;;;22.20;99.90;;;;;;5048784;28;20392;-59
2023/01/18 09:49:55;;;;;;;3.55;2.17;;;22.20;99.90;;;;;;5049536;28;20883;-60
2023/01/18 09:52:58;;;;;;;4.27;2.40;;;22.20;99.90;;;;;;5049461;28;20911;-60
2023/01/18 09:55:37;;;;;;;3.38;2.40;;;22.20;99.90;;;;;;5048298;28;20415;-61
2023/01/18 09:58:28;;;;;;;4.40;2.50;;;22.10;99.90;;;;;;5048686;28;20859;-60
2023/01/18 10:01:01;;;;;;;3.33;2.27;;;22.20;99.90;;;;;;5048512;28;20491;-59
2023/01/18 10:03:51;;;;;;;2.30;2.10;;;22.20;99.90;;;;;;5048229;28;20503;-60
2023/01/18 10:06:32;;;;;;;2.78;2.30;;;22.20;99.90;;;;;;5048110;28;20585;-60
2023/01/18 10:09:11;;;;;;;3.10;1.90;;;22.20;99.90;;;;;;5048474;28;20388;-60
2023/01/18 10:11:49;;;;;;;2.93;1.93;;;22.20;99.90;;;;;;5047162;28;20837;-60
2023/01/18 10:14:22;;;;;;;2.58;2.20;;;22.20;99.90;;;;;;5046217;28;20404;-59
2023/01/18 10:16:56;;;;;;;3.35;2.13;;;22.20;99.90;;;;;;5048976;28;20379;-59
2023/01/18 10:19:28;;;;;;;3.13;1.98;;;22.20;99.90;;;;;;5049111;28;20387;-60
2023/01/18 10:22:20;;;;;;;3.50;2.17;;;22.10;99.90;;;;;;5049615;28;20379;-59
2023/01/18 10:25:14;;;;;;;3.05;2.30;;;22.10;99.90;;;;;;5046003;28;20444;-59
2023/01/18 10:28:03;;;;;;;3.10;2.20;;;22.00;99.90;;;;;;5040139;28;20391;-60
2023/01/18 10:30:34;;;;;;;2.80;2.40;;;22.10;99.90;;;;;;5048932;28;20423;-59
2023/01/18 10:33:18;;;;;;;2.97;2.20;;;22.00;99.90;;;;;;5049498;28;20800;-59
2023/01/18 10:35:48;;;;;;;2.57;2.10;;;22.00;99.90;;;;;;5049484;28;20778;-59
2023/01/18 10:38:19;;;;;;;2.22;1.90;;;22.00;99.90;;;;;;5047937;28;20379;-59
2023/01/18 10:40:50;;;;;;;3.40;2.40;;;22.00;99.90;;;;;;5047492;28;20407;-59
2023/01/18 10:43:20;;;;;;;3.40;2.38;;;22.10;99.90;;;;;;5049240;28;20722;-59
2023/01/18 10:45:46;;;;;;;4.32;2.30;;;22.10;99.90;;;;;;5048323;28;20388;-59
2023/01/18 10:48:27;;;;;;;3.33;2.10;;;22.10;99.90;;;;;;5047325;28;20418;-59
2023/01/18 10:51:07;;;;;;;4.07;2.08;;;22.20;99.90;;;;;;5046557;28;20437;-59
2023/01/18 10:53:37;;;;;;;4.35;2.33;;;22.20;99.90;;;;;;5049101;28;20380;-59
2023/01/18 10:56:09;;;;;;;2.88;2.50;;;22.20;99.90;;;;;;5048143;28;20396;-59
2023/01/18 10:58:50;;;;;;;4.63;2.60;;;22.20;99.90;;;;;;5048079;28;20406;-59
2023/01/18 11:01:34;;;;;;;5.18;3.50;;;22.20;99.90;;;;;;5046179;28;20400;-60
2023/01/18 11:04:06;;;;;;;8.48;3.65;;;21.20;95.50;;;;;;5049099;28;20421;-59
2023/01/18 11:06:49;;;;;;;8.38;2.80;;;20.60;96.70;;;;;;5048277;28;20387;-59
2023/01/18 11:09:35;;;;;;;5.05;2.80;;;20.70;99.80;;;;;;5046800;28;20497;-60
2023/01/18 11:12:33;;;;;;;6.07;2.70;;;20.80;99.90;;;;;;5047495;28;20423;-59
2023/01/18 11:15:14;;;;;;;4.80;2.57;;;20.90;99.90;;;;;;5048601;28;20408;-59
2023/01/18 11:17:43;;;;;;;6.55;2.60;;;21.00;99.90;;;;;;5047280;28;20380;-61
2023/01/18 11:20:20;;;;;;;5.22;2.38;;;21.10;99.90;;;;;;5043283;28;20397;-59
2023/01/18 11:22:54;;;;;;;6.45;2.40;;;21.20;99.90;;;;;;5048510;28;20398;-59
2023/01/18 11:25:20;;;;;;;4.97;2.70;;;21.20;99.90;;;;;;5048401;28;20380;-59
2023/01/18 11:27:48;;;;;;;4.90;2.20;;;21.30;99.90;;;;;;5046882;28;20872;-60
2023/01/18 11:30:21;;;;;;;3.72;2.20;;;21.40;99.90;;;;;;5048523;28;20394;-60
2023/01/18 11:32:46;;;;;;;4.78;2.33;;;21.40;99.90;;;;;;5048825;28;20388;-59
2023/01/18 11:35:37;;;;;;;3.67;2.30;;;21.40;99.90;;;;;;5048073;28;20403;-59
2023/01/18 11:38:06;;;;;;;4.97;2.35;;;21.50;99.90;;;;;;5047622;28;20415;-60
2023/01/18 11:40:33;;;;;;;4.05;2.03;;;21.60;99.90;;;;;;5041808;28;20414;-59
2023/01/18 11:43:10;;;;;;;5.17;2.20;;;21.60;99.90;;;;;;5045803;28;20502;-59
2023/01/18 11:45:48;;;;;;;4.20;2.20;;;21.60;99.90;;;;;;5047766;28;20863;-59
2023/01/18 11:48:28;;;;;;;3.80;1.98;;;21.60;99.90;;;;;;5030639;28;20728;-59
2023/01/18 11:51:22;;;;;;;4.43;2.35;;;21.60;99.90;;;;;;5053124;28;20388;-59
2023/01/18 11:54:33;;;;;;;4.70;2.42;;;21.60;99.90;;;;;;5053278;28;20785;-59
2023/01/18 11:57:03;;;;;;;3.92;2.15;;;21.60;99.90;;;;;;5008334;28;20888;-60
2023/01/18 11:59:44;;;;;;;5.72;2.25;;;21.60;99.90;;;;;;5052467;28;21078;-59
2023/01/18 12:02:15;;;;;;;3.90;2.33;;;21.60;99.90;;;;;;5049443;28;20494;-59
2023/01/18 12:04:53;;;;;;;3.85;2.08;;;21.60;99.90;;;;;;5050857;28;20396;-59
2023/01/18 12:07:47;;;;;;;5.80;2.35;;;21.60;99.90;;;;;;5049393;28;20423;-60
2023/01/18 12:10:24;;;;;;;5.20;2.10;;;21.60;99.90;;;;;;5042111;28;20399;-60
2023/01/18 12:13:08;;;;;;;3.60;1.80;;;21.60;99.90;;;;;;5051449;28;20375;-59
2023/01/18 12:16:12;;;;;;;5.43;2.40;;;21.60;99.90;;;;;;5051089;28;20414;-60
2023/01/18 12:19:05;;;;;;;3.72;2.10;;;21.60;99.90;;;;;;5039643;28;20871;-59
2023/01/18 12:22:02;;;;;;;5.28;1.98;;;21.60;99.90;;;;;;5049619;28;20402;-59
2023/01/18 12:24:57;;;;;;;3.88;2.05;;;21.60;99.90;;;;;;5049980;28;20419;-59
2023/01/18 12:27:41;;;;;;;4.32;2.33;;;21.60;99.90;;;;;;5024919;28;20415;-59
2023/01/18 12:30:38;;;;;;;4.93;2.30;;;21.40;99.90;;;;;;5050701;28;20483;-59
2023/01/18 12:33:18;;;;;;;6.55;2.60;;;21.50;99.90;;;;;;5020265;28;20395;-59
2023/01/18 12:36:15;;;;;;;4.55;2.63;;;21.50;99.90;;;;;;5051007;28;20402;-59
2023/01/18 12:38:50;;;;;;;3.55;2.17;;;21.60;99.90;;;;;;5050826;28;20388;-60
2023/01/18 12:41:36;;;;;;;4.30;1.90;;;21.60;99.90;;;;;;5051226;28;20388;-58
2023/01/18 12:44:28;;;;;;;3.30;2.22;;;21.60;99.90;;;;;;5048114;28;20797;-59
2023/01/18 12:47:18;;;;;;;4.28;2.60;;;21.60;99.90;;;;;;5050113;28;20870;-59
2023/01/18 12:49:49;;;;;;;5.53;2.50;;;21.60;99.90;;;;;;5044091;28;20940;-59
2023/01/18 12:52:20;;;;;;;6.27;2.83;;;21.70;99.90;;;;;;5049633;28;20873;-59
2023/01/18 12:54:49;;;;;;;7.20;2.93;;;21.70;99.90;;;;;;5048565;28;20464;-59
2023/01/18 12:57:16;;;;;;;4.65;2.65;;;21.70;99.90;;;;;;5049903;28;20410;-60
2023/01/18 13:00:02;;;;;;;5.43;3.10;;;21.70;99.90;;;;;;5049069;28;20372;-60
2023/01/18 13:02:32;;;;;;;5.10;3.00;;;21.70;99.90;;;;;;5049590;28;20475;-59
2023/01/18 13:05:16;;;;;;;7.07;2.70;;;21.60;99.90;;;;;;5050253;28;20387;-60
2023/01/18 13:07:48;;;;;;;7.55;3.00;;;21.60;99.90;;;;;;5047667;28;20368;-59
2023/01/18 13:10:27;;;;;;;5.15;2.72;;;21.60;99.90;;;;;;5047247;28;20422;-59
2023/01/18 13:12:55;;;;;;;5.55;2.92;;;21.60;99.90;;;;;;5048885;28;20372;-59
2023/01/18 13:15:41;;;;;;;7.20;2.70;;;21.60;99.90;;;;;;5049391;28;20403;-59
2023/01/18 13:18:38;;;;;;;4.93;3.10;;;21.60;99.90;;;;;;5049612;28;20417;-60
2023/01/18 13:21:36;;;;;;;5.93;2.80;;;21.60;99.90;;;;;;5049334;28;21047;-59
2023/01/18 13:24:22;;;;;;;8.60;3.10;;;21.60;99.90;;;;;;4995320;28;20401;-59
2023/01/18 13:26:48;;;;;;;5.03;2.65;;;21.60;99.90;;;;;;5048489;28;20376;-59
2023/01/18 13:29:29;;;;;;;5.82;3.00;;;21.60;99.90;;;;;;5058841;28;20446;-60
2023/01/18 13:31:56;;;;;;;6.18;2.70;;;21.60;99.90;;;;;;5043741;28;20384;-60
2023/01/18 13:34:34;;;;;;;7.13;2.70;;;21.60;99.90;;;;;;5040296;28;20382;-60
2023/01/18 13:37:02;;;;;;;4.97;2.85;;;21.60;99.90;;;;;;5037531;28;20388;-59
2023/01/18 13:39:30;;;;;;;4.90;2.55;;;21.60;99.90;;;;;;5038467;28;20375;-59
2023/01/18 13:42:07;;;;;;;4.20;2.38;;;21.60;99.90;;;;;;5037834;28;20476;-60